Tianjin Binhai International Airport
ZBTJ : now visible

Airfield :











YOU CAN JOIN US ON...

 
LOGIN :

Register | Disclaimer

   EN    FR    IT 

 









Legend :    VFR   Marginal VFR   IFR   Intensive IFR   Very Intensive IFR
Visi :
Ceiling :
>= 8 km
>= 3000ft
5 to 8 km
1000 to 3000 ft
1500m to 5 km
500 to 1000 ft
800 to 1500m
200 to 500 ft
< 800m
< 200 ft
Symbols :   Thunderstorms  Fog  Heavy snow  Heavy precipitations  Wind > 20 kt







- Airport Elevation : 10 ft
- IATA code : TSN


ZBTJ - Tianjin Binhai International

CURRENT METAR :
  • 201400Z 13001MPS 3500 HZ NSC M03/M07 Q1031 NOSIG

EXPIRED METARs :
  • 201330Z VRB01MPS 3500 HZ NSC M02/M07 Q1031 NOSIG
  • 201300Z VRB01MPS 4000 HZ NSC M01/M07 Q1030 NOSIG
  • 201230Z 15001MPS 4000 HZ NSC M01/M07 Q1030 NOSIG
  • 201200Z 14003MPS 4500 HZ NSC M00/M07 Q1030 NOSIG
  • 201130Z 18003MPS 4500 HZ NSC 02/M07 Q1030 NOSIG

TAF TAF ZBTJ
Valid from the 20 at 12:00 until the 21 at 12:00 UTC


200851Z 2012/2112 24003MPS 3000 HZ NSC TX12/2107Z TNM03/22Z
ZBPE FIR / Asia



MET'MAP, your aeronautical weather chart ! - Copyright ORBIFLY December 2007 - Disclaimer

ORBIFLY MET'MAP TEAM :

Programming & Development : Alexandra Zaïnal
Concept & Development : Baudouin d'Aumeries
Co-Development & Prog : Marc-Olivier Méhu
Technical & hardware support : Manuel Goepfert

Contact : metmap@orbifly.com




SOURCES & CREDITS :

   NOAA       Earth
Advisory